Time;durP1;ratioP1;P1;durP2;ratioP2;P2;SDS_P1;SDS_P2;PMS_P1;PMS_P2;Temp;Humidity;BMP_temperature;BMP_pressure;BME280_temperature;BME280_humidity;BME280_pressure;Samples;Min_cycle;Max_cycle;Signal;HPM_P1;HPM_P2
2021/07/05 00:00:26;;;;;;;17.52;6.40;;;;;;;22.48;100.00;99804.08;1632573;87;20997;-81
2021/07/05 00:02:53;;;;;;;14.18;6.35;;;;;;;22.45;100.00;99805.58;1632603;87;21069;-80
2021/07/05 00:05:20;;;;;;;11.00;6.20;;;;;;;22.42;100.00;99800.81;1632739;86;21183;-83
2021/07/05 00:07:47;;;;;;;14.78;6.67;;;;;;;22.42;100.00;99806.30;1658317;83;21175;-86
2021/07/05 00:10:15;;;;;;;14.00;6.67;;;;;;;;;;1688745;85;21064;-80
2021/07/05 00:12:45;;;;;;;11.48;6.20;;;;;;;22.38;100.00;99806.23;1630496;88;21129;-80
2021/07/05 00:15:10;;;;;;;13.50;6.33;;;;;;;22.37;100.00;99803.25;1630151;88;21082;-81
2021/07/05 00:17:36;;;;;;;11.35;5.85;;;;;;;22.36;100.00;99801.66;1630652;88;21132;-81
2021/07/05 00:20:05;;;;;;;11.28;6.50;;;;;;;22.35;100.00;99798.68;1630581;88;21059;-81
2021/07/05 00:22:31;;;;;;;9.73;6.05;;;;;;;22.34;100.00;99797.69;1630659;88;21125;-80
2021/07/05 00:24:57;;;;;;;14.40;6.40;;;;;;;22.35;100.00;99800.64;1630493;88;21030;-81
2021/07/05 00:27:23;;;;;;;18.75;6.72;;;;;;;22.32;100.00;99802.14;1630526;88;20970;-80
2021/07/05 00:29:49;;;;;;;12.60;6.33;;;;;;;22.31;100.00;99799.19;1630578;88;20991;-81
2021/07/05 00:32:15;;;;;;;12.10;6.75;;;;;;;22.29;100.00;99789.72;1630484;88;21628;-81
2021/07/05 00:34:40;;;;;;;11.55;6.55;;;;;;;22.26;100.00;99793.18;1630733;88;21030;-78
2021/07/05 00:37:06;;;;;;;9.98;6.62;;;;;;;22.26;100.00;99792.60;1630773;88;20994;-80
2021/07/05 00:39:32;;;;;;;17.17;6.20;;;;;;;22.23;100.00;99789.99;1630615;88;20961;-81
2021/07/05 00:41:58;;;;;;;13.40;6.08;;;;;;;22.23;100.00;99783.12;1630729;88;21014;-81
2021/07/05 00:44:24;;;;;;;12.20;5.70;;;;;;;22.23;100.00;99780.38;1629906;88;21644;-80
2021/07/05 00:46:50;;;;;;;17.20;6.45;;;;;;;22.23;100.00;99779.01;1630475;88;20871;-78
2021/07/05 00:49:16;;;;;;;14.70;6.37;;;;;;;22.21;100.00;99768.98;1630743;88;21065;-80
2021/07/05 00:51:42;;;;;;;15.88;6.17;;;;;;;22.21;100.00;99770.94;1630481;88;21030;-79
2021/07/05 00:54:08;;;;;;;11.60;6.50;;;;;;;22.19;100.00;99774.61;1630856;88;21775;-80
2021/07/05 00:56:34;;;;;;;12.82;5.85;;;;;;;22.18;100.00;99775.20;1630726;88;21237;-81
2021/07/05 00:59:01;;;;;;;14.80;6.05;;;;;;;22.16;100.00;99778.84;1630229;88;21117;-80
2021/07/05 01:01:27;;;;;;;16.62;6.42;;;;;;;22.15;100.00;99770.39;1630499;88;21101;-80
2021/07/05 01:03:53;;;;;;;11.63;6.33;;;;;;;22.13;100.00;99773.27;1630744;88;20903;-81
2021/07/05 01:06:20;;;;;;;12.63;6.67;;;;;;;22.12;100.00;99779.89;1630712;87;20891;-78
2021/07/05 01:08:46;;;;;;;18.00;6.78;;;;;;;22.08;100.00;99774.33;1639063;84;21413;-80
2021/07/05 01:11:13;;;;;;;11.80;6.65;;;;;;;22.05;100.00;99772.30;1686825;84;20916;-80
2021/07/05 01:13:39;;;;;;;12.00;6.40;;;;;;;22.04;100.00;99776.80;1686652;85;21020;-81
2021/07/05 01:16:05;;;;;;;11.15;7.28;;;;;;;22.00;100.00;99779.43;1686618;84;21027;-86
2021/07/05 01:18:31;;;;;;;11.70;6.65;;;;;;;21.96;100.00;99777.98;1686850;84;21099;-81
2021/07/05 01:21:00;;;;;;;15.85;6.78;;;;;;;21.93;100.00;99766.93;1687010;85;21162;-80
2021/07/05 01:23:27;;;;;;;16.90;6.87;;;;;;;21.89;100.00;99764.11;1686408;85;21098;-80
2021/07/05 01:25:53;;;;;;;10.85;6.53;;;;;;;21.86;100.00;99773.05;1686665;85;21000;-81
2021/07/05 01:28:19;;;;;;;13.18;6.30;;;;;;;21.85;100.00;99771.44;1666769;85;20963;-79
2021/07/05 01:30:45;;;;;;;17.52;6.12;;;;;;;21.81;100.00;99765.09;1686671;85;21078;-81
2021/07/05 01:33:12;;;;;;;14.13;6.95;;;;;;;21.77;100.00;99760.89;1686878;84;21747;-80
2021/07/05 01:35:38;;;;;;;16.10;6.67;;;;;;;21.75;100.00;99748.10;1686706;85;21492;-84
2021/07/05 01:38:12;;;;;;;11.40;6.67;;;;;;;21.74;100.00;99742.41;1686699;85;21036;-80
2021/07/05 01:40:38;;;;;;;14.70;7.20;;;;;;;21.74;100.00;99739.66;1684805;85;21040;-83
2021/07/05 01:43:04;;;;;;;11.78;6.62;;;;;;;21.73;100.00;99733.15;1686530;85;20980;-80
2021/07/05 01:45:33;;;;;;;15.10;6.58;;;;;;;21.74;100.00;99733.39;1686719;85;21168;-77
2021/07/05 01:48:00;;;;;;;11.95;6.78;;;;;;;21.75;100.00;99728.11;1686624;85;21075;-77
2021/07/05 01:50:28;;;;;;;13.35;6.17;;;;;;;21.76;100.00;99729.11;1686617;85;21059;-80
2021/07/05 01:52:55;;;;;;;14.55;6.08;;;;;;;21.76;100.00;99731.86;1686362;85;21088;-81
2021/07/05 01:55:33;;;;;;;15.10;7.25;;;;;;;21.74;100.00;99727.91;1665781;85;21075;-77
2021/07/05 01:58:03;;;;;;;12.15;6.60;;;;;;;21.71;100.00;99730.78;1686540;85;21082;-82
2021/07/05 02:00:32;;;;;;;11.70;6.87;;;;;;;21.72;100.00;99732.94;1686616;85;21520;-81
2021/07/05 02:02:59;;;;;;;12.15;6.72;;;;;;;21.72;100.00;99739.22;1686453;85;21072;-83
2021/07/05 02:05:26;;;;;;;13.30;7.15;;;;;;;21.73;100.00;99740.01;1686617;85;21508;-81
2021/07/05 02:07:52;;;;;;;14.23;6.50;;;;;;;21.72;100.00;99744.70;1686909;84;21059;-78
2021/07/05 02:10:24;;;;;;;13.48;6.58;;;;;;;21.73;100.00;99745.50;1689300;84;21212;-81
2021/07/05 02:12:52;;;;;;;18.67;6.78;;;;;;;21.74;100.00;99737.50;1685071;84;21051;-79
2021/07/05 02:15:18;;;;;;;14.30;6.53;;;;;;;21.74;100.00;99732.81;1681876;84;21076;-81
2021/07/05 02:17:45;;;;;;;13.40;6.83;;;;;;;21.77;100.00;99736.21;1679848;85;21476;-80
2021/07/05 02:20:16;;;;;;;11.68;6.25;;;;;;;21.83;100.00;99744.17;1679726;85;21060;-79
2021/07/05 02:22:45;;;;;;;11.00;6.00;;;;;;;21.86;100.00;99740.14;1625691;88;21203;-80
2021/07/05 02:25:13;;;;;;;13.08;5.97;;;;;;;21.90;100.00;99739.63;1625499;88;22941;-81
2021/07/05 02:27:42;;;;;;;14.45;6.35;;;;;;;21.95;100.00;99745.43;1625793;88;21038;-79
2021/07/05 02:30:13;;;;;;;12.88;6.40;;;;;;;21.97;100.00;99745.84;1625938;88;21105;-81
2021/07/05 02:32:41;;;;;;;13.95;5.50;;;;;;;22.02;100.00;99748.91;1625754;88;21062;-81
2021/07/05 02:35:13;;;;;;;10.03;5.12;;;;;;;22.06;100.00;99758.00;1625541;87;22351;-83
2021/07/05 02:37:41;;;;;;;18.25;6.05;;;;;;;22.10;100.00;99766.55;1625821;88;21214;-83
2021/07/05 02:40:11;;;;;;;11.57;5.35;;;;;;;22.10;100.00;99765.75;1625453;88;22033;-80
2021/07/05 02:42:39;;;;;;;11.30;5.90;;;;;;;22.10;100.00;99761.64;1625694;87;21067;-81
2021/07/05 02:45:10;;;;;;;14.20;5.58;;;;;;;22.13;100.00;99767.78;1625663;87;21078;-80
2021/07/05 02:47:35;;;;;;;10.88;6.30;;;;;;;22.14;100.00;99758.39;1625099;88;21267;-81
2021/07/05 02:50:04;;;;;;;13.15;6.00;;;;;;;22.19;100.00;99765.80;1625879;87;21077;-81
2021/07/05 02:52:30;;;;;;;11.08;5.80;;;;;;;22.22;100.00;99759.59;1625634;88;21178;-81
2021/07/05 02:54:56;;;;;;;12.33;5.65;;;;;;;22.27;100.00;99764.59;1625781;87;20899;-80
2021/07/05 02:57:31;;;;;;;12.07;5.75;;;;;;;22.31;100.00;99762.72;1625990;87;20974;-80
2021/07/05 03:00:14;;;;;;;9.85;5.75;;;;;;;22.38;100.00;99761.48;1625283;87;21939;-81
2021/07/05 03:02:41;;;;;;;13.28;5.58;;;;;;;22.45;100.00;99764.39;1625948;88;21134;-78
2021/07/05 03:05:10;;;;;;;13.22;5.45;;;;;;;22.60;100.00;99755.88;1625775;88;21095;-80
2021/07/05 03:07:36;;;;;;;12.00;5.75;;;;;;;22.72;100.00;99752.19;1625600;88;21226;-81
2021/07/05 03:10:08;;;;;;;11.35;5.08;;;;;;;22.80;100.00;99750.59;1613711;87;20911;-79
2021/07/05 03:12:35;;;;;;;13.48;5.33;;;;;;;22.92;100.00;99746.89;1621873;88;21614;-81
2021/07/05 03:15:03;;;;;;;14.15;5.72;;;;;;;23.00;100.00;99739.58;1590564;90;21092;-80
2021/07/05 03:17:30;;;;;;;11.73;5.20;;;;;;;23.18;100.00;99752.27;1621644;88;21537;-78
2021/07/05 03:19:56;;;;;;;12.03;5.60;;;;;;;23.36;100.00;99745.16;1596152;89;21562;-79
2021/07/05 03:22:22;;;;;;;10.58;5.25;;;;;;;23.54;100.00;99743.48;1621065;88;20952;-80
2021/07/05 03:24:48;;;;;;;11.95;5.33;;;;;;;23.71;100.00;99737.30;1621035;88;21784;-80
2021/07/05 03:27:14;;;;;;;10.68;4.92;;;;;;;23.93;100.00;99747.45;1620822;88;20931;-79
2021/07/05 03:29:40;;;;;;;9.88;4.62;;;;;;;24.12;100.00;99743.80;1621008;87;21058;-81
2021/07/05 03:32:08;;;;;;;11.97;5.22;;;;;;;24.27;100.00;99742.03;1621073;88;20868;-81
2021/07/05 03:34:34;;;;;;;13.98;5.90;;;;;;;24.48;100.00;99738.78;1621002;88;21576;-81
2021/07/05 03:37:01;;;;;;;9.40;5.15;;;;;;;24.73;100.00;99739.66;1620666;87;39042;-81
2021/07/05 03:39:27;;;;;;;10.60;5.08;;;;;;;24.91;100.00;99737.32;1620835;87;21598;-80
2021/07/05 03:41:54;;;;;;;13.75;5.50;;;;;;;25.15;100.00;99729.70;1598192;88;21227;-82
2021/07/05 03:44:20;;;;;;;14.35;5.62;;;;;;;25.48;100.00;99730.78;1600950;88;21051;-77
2021/07/05 03:46:46;;;;;;;13.65;5.72;;;;;;;25.64;100.00;99731.88;1621320;88;21070;-81
2021/07/05 03:49:12;;;;;;;8.53;5.28;;;;;;;25.80;100.00;99733.77;1620645;88;21991;-81
2021/07/05 03:51:38;;;;;;;10.10;5.22;;;;;;;25.98;100.00;99736.09;1601139;88;21032;-83
2021/07/05 03:54:04;;;;;;;11.73;5.50;;;;;;;26.09;100.00;99734.78;1592052;90;20909;-80
2021/07/05 03:56:30;;;;;;;15.53;5.50;;;;;;;26.24;100.00;99729.52;1592215;90;21225;-78
2021/07/05 03:58:57;;;;;;;11.88;5.42;;;;;;;26.42;100.00;99733.75;1592266;89;21544;-81
2021/07/05 04:01:23;;;;;;;16.15;6.53;;;;;;;26.69;100.00;99743.16;1601543;88;21161;-81
2021/07/05 04:03:49;;;;;;;13.40;6.25;;;;;;;26.86;100.00;99745.78;1604712;88;21011;-81
2021/07/05 04:06:15;;;;;;;14.75;6.30;;;;;;;26.97;100.00;99739.66;1620847;88;21011;-81
2021/07/05 04:08:41;;;;;;;9.93;6.03;;;;;;;27.14;100.00;99738.90;1621359;88;21075;-79
2021/07/05 04:11:08;;;;;;;12.90;6.10;;;;;;;27.17;100.00;99739.52;1606816;87;21091;-81
2021/07/05 04:13:34;;;;;;;10.30;6.08;;;;;;;27.27;100.00;99741.34;1613175;87;21110;-81
2021/07/05 04:16:00;;;;;;;12.05;5.95;;;;;;;27.57;100.00;99732.63;1578683;89;21064;-78
2021/07/05 04:18:27;;;;;;;20.25;6.90;;;;;;;27.84;100.00;99725.50;1625040;88;21050;-81
2021/07/05 04:20:53;;;;;;;9.90;5.87;;;;;;;28.28;100.00;99731.12;1601977;88;21027;-81
2021/07/05 04:23:20;;;;;;;13.03;6.08;;;;;;;28.41;100.00;99724.56;1596179;89;21742;-81
2021/07/05 04:25:47;;;;;;;9.98;6.35;;;;;;;28.59;100.00;99713.42;1621901;86;21101;-82
2021/07/05 04:28:13;;;;;;;11.57;6.50;;;;;;;28.75;100.00;99718.47;1623973;86;21064;-81
2021/07/05 04:30:39;;;;;;;14.00;6.60;;;;;;;28.77;100.00;99717.48;1627360;86;21565;-80
2021/07/05 04:33:05;;;;;;;15.68;6.78;;;;;;;28.88;100.00;99717.39;1617829;87;20904;-82
2021/07/05 04:35:32;;;;;;;13.20;6.62;;;;;;;29.04;100.00;99721.11;1628206;87;21110;-78
2021/07/05 04:38:00;;;;;;;13.00;6.10;;;;;;;29.07;100.00;99720.29;1625470;86;21154;-82
2021/07/05 04:40:30;;;;;;;11.70;6.12;;;;;;;29.29;100.00;99717.52;1622240;86;21086;-83
2021/07/05 04:42:57;;;;;;;12.18;6.45;;;;;;;29.52;100.00;99715.55;1620989;86;21097;-81
2021/07/05 04:45:27;;;;;;;10.23;6.90;;;;;;;29.55;100.00;99706.41;1624171;86;21051;-81
2021/07/05 04:47:55;;;;;;;14.63;6.75;;;;;;;29.87;100.00;99710.28;1627121;87;21570;-79
2021/07/05 04:50:21;;;;;;;14.58;6.40;;;;;;;30.29;100.00;99703.28;1652047;86;21101;-80
2021/07/05 04:52:48;;;;;;;12.78;5.92;;;;;;;30.53;100.00;99693.85;1629679;85;21122;-80
2021/07/05 04:55:18;;;;;;;11.15;7.37;;;;;;;30.67;100.00;99697.02;1602674;88;21072;-81
2021/07/05 04:57:46;;;;;;;14.85;6.90;;;;;;;30.70;100.00;99689.23;1649029;86;21015;-80
2021/07/05 05:00:23;;;;;;;15.03;6.37;;;;;;;30.51;100.00;99700.42;1618828;85;21062;-80
2021/07/05 05:02:50;;;;;;;9.98;6.28;;;;;;;30.48;100.00;99698.48;1605107;89;21328;-81
2021/07/05 05:05:16;;;;;;;11.78;6.78;;;;;;;30.70;100.00;99698.18;1605191;88;21084;-81
2021/07/05 05:07:42;;;;;;;11.88;6.33;;;;;;;30.59;100.00;99704.48;1605354;88;21027;-81
2021/07/05 05:10:11;;;;;;;10.53;6.60;;;;;;;30.79;100.00;99701.25;1605100;88;20967;-81
2021/07/05 05:12:37;;;;;;;13.60;6.72;;;;;;;30.99;100.00;99706.93;1605444;89;21031;-80
2021/07/05 05:15:06;;;;;;;13.93;6.20;;;;;;;31.05;100.00;99709.42;1584251;89;21152;-81
2021/07/05 05:17:32;;;;;;;9.23;6.20;;;;;;;31.06;100.00;99710.20;1605191;88;21079;-79
2021/07/05 05:19:58;;;;;;;10.72;6.53;;;;;;;30.70;100.00;99704.53;1605348;88;21012;-81
2021/07/05 05:22:24;;;;;;;11.85;6.70;;;;;;;30.00;100.00;99713.91;1605348;88;20999;-80
2021/07/05 05:24:50;;;;;;;13.18;6.42;;;;;;;29.60;100.00;99707.95;1605513;88;20945;-81
2021/07/05 05:27:16;;;;;;;11.40;6.47;;;;;;;29.40;100.00;99708.52;1605385;88;21147;-81
2021/07/05 05:29:43;;;;;;;12.30;6.97;;;;;;;29.34;100.00;99710.16;1605389;88;21001;-79
2021/07/05 05:32:09;;;;;;;10.93;6.65;;;;;;;29.23;100.00;99715.60;1605208;88;21100;-79
2021/07/05 05:34:35;;;;;;;10.95;7.42;;;;;;;28.93;100.00;99718.36;1605385;88;21119;-81
2021/07/05 05:37:03;;;;;;;21.05;7.05;;;;;;;29.09;100.00;99716.48;1605296;88;21583;-79
2021/07/05 05:39:29;;;;;;;10.68;6.80;;;;;;;29.52;100.00;99714.16;1605492;88;21707;-86
2021/07/05 05:41:55;;;;;;;15.75;7.25;;;;;;;29.51;100.00;99695.94;1605589;89;21083;-85
2021/07/05 05:44:21;;;;;;;15.95;6.62;;;;;;;29.40;100.00;99701.58;1605636;89;21074;-85
2021/07/05 05:46:47;;;;;;;11.03;6.97;;;;;;;29.57;100.00;99704.61;1584466;89;21973;-90
2021/07/05 05:49:13;;;;;;;10.68;5.65;;;;;;;29.78;100.00;99707.81;1605717;89;21619;-85
2021/07/05 05:51:39;;;;;;;11.85;6.60;;;;;;;29.88;100.00;99699.95;1605899;89;21178;-85
2021/07/05 05:54:08;;;;;;;10.70;6.15;;;;;;;30.41;100.00;99698.56;1605393;89;20913;-85
2021/07/05 05:56:36;;;;;;;10.72;6.67;;;;;;;30.88;100.00;99698.73;1605686;89;21067;-84
2021/07/05 05:59:07;;;;;;;11.10;6.50;;;;;;;30.64;100.00;99708.20;1605437;89;21604;-85
2021/07/05 06:01:36;;;;;;;12.85;6.42;;;;;;;30.25;100.00;99710.28;1605629;89;21087;-83
2021/07/05 06:04:03;;;;;;;13.08;6.67;;;;;;;29.85;100.00;99709.11;1605597;88;21993;-84
2021/07/05 06:06:29;;;;;;;13.28;6.35;;;;;;;29.19;100.00;99715.64;1615795;87;21058;-84
2021/07/05 06:08:55;;;;;;;10.28;6.83;;;;;;;28.76;100.00;99720.83;1619844;87;21103;-85
2021/07/05 06:11:22;;;;;;;18.07;6.53;;;;;;;28.39;100.00;99722.78;1619941;88;21500;-81
2021/07/05 06:13:48;;;;;;;10.05;6.55;;;;;;;28.20;100.00;99728.78;1619929;88;21061;-87
2021/07/05 06:16:15;;;;;;;11.50;7.03;;;;;;;28.04;100.00;99720.92;1619974;87;21155;-84
2021/07/05 06:18:42;;;;;;;12.28;6.67;;;;;;;27.81;100.00;99726.91;1620274;88;21095;-84
2021/07/05 06:21:08;;;;;;;13.08;6.85;;;;;;;27.76;100.00;99723.90;1620027;88;21546;-85
2021/07/05 06:23:35;;;;;;;11.03;6.45;;;;;;;27.63;100.00;99722.14;1620050;88;21027;-86
2021/07/05 06:26:03;;;;;;;13.10;7.65;;;;;;;27.37;100.00;99727.48;1620078;87;21131;-88
2021/07/05 06:28:33;;;;;;;15.15;6.95;;;;;;;27.23;100.00;99720.56;1619633;88;21231;-79
2021/07/05 06:31:01;;;;;;;10.82;7.05;;;;;;;27.07;100.00;99718.16;1619577;88;21075;-79
2021/07/05 06:33:28;;;;;;;16.35;8.10;;;;;;;26.82;100.00;99720.86;1619647;88;21015;-79
2021/07/05 06:35:54;;;;;;;13.35;7.30;;;;;;;26.62;100.00;99724.58;1619825;88;20996;-79
2021/07/05 06:38:21;;;;;;;12.13;7.08;;;;;;;26.52;100.00;99735.59;1619756;87;21071;-80
2021/07/05 06:40:49;;;;;;;17.02;7.37;;;;;;;26.38;100.00;99727.98;1619692;87;21101;-81
2021/07/05 06:43:16;;;;;;;18.67;7.20;;;;;;;26.20;100.00;99725.15;1616720;87;21182;-79
2021/07/05 06:45:42;;;;;;;13.60;7.35;;;;;;;26.15;100.00;99729.09;1608309;86;21512;-77
2021/07/05 06:48:09;;;;;;;15.55;7.62;;;;;;;26.19;100.00;99734.63;1614295;88;21100;-81
2021/07/05 06:50:37;;;;;;;13.72;7.00;;;;;;;26.17;100.00;99740.52;1627191;87;21063;-80
2021/07/05 06:53:05;;;;;;;15.75;7.37;;;;;;;26.26;100.00;99744.31;1631508;86;21675;-80
2021/07/05 06:55:32;;;;;;;13.28;6.80;;;;;;;26.45;100.00;99738.50;1646455;86;21043;-80
2021/07/05 06:57:58;;;;;;;12.63;7.22;;;;;;;26.80;100.00;99726.61;1625585;87;21090;-80
2021/07/05 07:00:27;;;;;;;9.83;6.40;;;;;;;27.88;100.00;99722.72;1625506;87;21066;-80
2021/07/05 07:02:54;;;;;;;16.27;6.85;;;;;;;29.49;100.00;99731.64;1606537;88;21036;-77
2021/07/05 07:05:22;;;;;;;12.13;6.40;;;;;;;30.31;100.00;99737.81;1594646;89;21158;-77
2021/07/05 07:07:54;;;;;;;12.78;6.55;;;;;;;31.02;100.00;99725.56;1595890;89;21032;-82
2021/07/05 07:10:22;;;;;;;;;;;;;;;31.82;100.00;99728.64;1600233;89;21083;-79
2021/07/05 07:12:48;;;;;;;9.28;5.58;;;;;;;32.39;100.00;99728.96;1598040;89;20155;-79
2021/07/05 07:15:20;;;;;;;10.08;6.10;;;;;;;32.68;100.00;99738.94;1598269;89;20984;-78
2021/07/05 07:20:18;;;;;;;17.92;5.75;;;;;;;31.78;100.00;99750.22;1597689;89;21028;-82
2021/07/05 07:22:44;;;;;;;12.80;6.05;;;;;;;31.43;100.00;99737.09;1598047;89;20996;-79
2021/07/05 07:25:14;;;;;;;6.78;5.53;;;;;;;31.85;100.00;99729.18;1598104;89;20908;-77
2021/07/05 07:27:41;;;;;;;9.93;6.12;;;;;;;32.64;100.00;99724.88;1598101;89;21032;-79
2021/07/05 07:30:10;;;;;;;9.55;5.55;;;;;;;32.83;100.00;99735.80;1597915;89;21369;-78
2021/07/05 07:32:37;;;;;;;12.07;6.30;;;;;;;32.40;100.00;99744.47;1614650;87;21106;-80
2021/07/05 07:35:03;;;;;;;10.40;6.20;;;;;;;31.54;100.00;99739.70;1594870;88;21077;-80
2021/07/05 07:37:30;;;;;;;10.85;6.60;;;;;;;30.76;100.00;99739.63;1603017;87;21053;-80
2021/07/05 07:40:00;;;;;;;9.28;5.97;;;;;;;30.43;100.00;99747.59;1622232;87;21038;-80
2021/07/05 07:42:24;;;;;;;11.08;6.03;;;;;;;30.35;100.00;99760.00;1612597;87;21075;-79
2021/07/05 07:44:50;;;;;;;11.45;6.37;;;;;;;30.44;100.00;99763.07;1597957;89;21749;-79
2021/07/05 07:47:16;;;;;;;11.90;6.80;;;;;;;30.06;100.00;99759.50;1597988;89;21655;-79
2021/07/05 07:49:42;;;;;;;14.23;7.12;;;;;;;29.80;100.00;99760.98;1597846;89;20917;-79
2021/07/05 07:52:08;;;;;;;14.28;6.85;;;;;;;29.78;100.00;99764.75;1598059;89;21097;-79
2021/07/05 07:54:34;;;;;;;12.90;6.30;;;;;;;29.65;100.00;99770.82;1578526;89;21245;-80
2021/07/05 07:57:01;;;;;;;10.53;7.08;;;;;;;29.49;100.00;99768.34;1597975;89;21095;-77
2021/07/05 07:59:28;;;;;;;14.28;6.60;;;;;;;29.56;100.00;99759.37;1611356;86;21041;-83
2021/07/05 08:01:54;;;;;;;9.70;5.75;;;;;;;29.79;100.00;99764.94;1607189;88;21550;-87
2021/07/05 08:04:20;;;;;;;13.70;6.03;;;;;;;30.47;100.00;99755.31;1604211;88;21057;-83
2021/07/05 08:06:46;;;;;;;11.12;6.12;;;;;;;31.51;100.00;99764.23;1627545;88;21845;-84
2021/07/05 08:09:12;;;;;;;9.88;6.08;;;;;;;31.81;100.00;99764.70;1627515;87;20887;-82
2021/07/05 08:11:39;;;;;;;8.83;5.70;;;;;;;32.20;100.00;99763.20;1627663;87;21018;-84
2021/07/05 08:14:07;;;;;;;9.65;5.35;;;;;;;32.88;100.00;99766.00;1627895;88;21118;-84
2021/07/05 08:16:33;;;;;;;10.65;5.75;;;;;;;33.42;97.40;99772.56;1622024;87;21091;-85
2021/07/05 08:18:59;;;;;;;8.45;5.25;;;;;;;33.83;95.38;99767.76;1621185;88;22024;-86
2021/07/05 08:21:25;;;;;;;10.35;5.37;;;;;;;34.11;89.42;99759.23;1601409;88;20989;-84
2021/07/05 08:23:52;;;;;;;8.38;5.58;;;;;;;33.81;86.37;99765.23;1617975;88;21026;-83
2021/07/05 08:26:21;;;;;;;13.08;5.95;;;;;;;33.26;91.44;99755.17;1621375;87;21003;-84
2021/07/05 08:28:49;;;;;;;8.80;6.12;;;;;;;33.05;93.69;99752.28;1621195;88;21039;-88
2021/07/05 08:31:15;;;;;;;11.40;6.03;;;;;;;33.01;93.10;99746.01;1621182;88;21247;-84
2021/07/05 08:33:41;;;;;;;12.25;5.65;;;;;;;33.23;93.98;99743.48;1621085;88;20978;-83
2021/07/05 08:36:08;;;;;;;13.55;5.75;;;;;;;34.06;90.71;99739.41;1621452;88;21043;-84
2021/07/05 08:38:34;;;;;;;8.30;5.55;;;;;;;34.30;85.25;99737.16;1621347;88;21574;-84
2021/07/05 08:41:02;;;;;;;11.63;5.60;;;;;;;34.72;85.58;99726.72;1621446;87;21043;-82
2021/07/05 08:43:31;;;;;;;13.72;5.42;;;;;;;35.08;80.30;99718.63;1601193;87;21067;-85
2021/07/05 08:46:04;;;;;;;9.65;5.80;;;;;;;35.09;81.24;99714.58;1621209;88;21515;-85
2021/07/05 08:48:35;;;;;;;14.85;5.45;;;;;;;35.50;78.83;99719.83;1621413;87;22254;-84
2021/07/05 08:51:04;;;;;;;7.87;5.10;;;;;;;35.97;78.12;99715.42;1619155;88;21035;-83
2021/07/05 08:53:31;;;;;;;7.22;4.67;;;;;;;35.81;70.64;99715.78;1621338;88;21027;-85
2021/07/05 08:55:57;;;;;;;7.95;5.30;;;;;;;35.01;77.84;99721.02;1621669;88;21195;-85
2021/07/05 08:58:23;;;;;;;9.78;5.50;;;;;;;34.54;78.31;99727.27;1621255;88;21019;-86
2021/07/05 09:00:50;;;;;;;12.73;5.53;;;;;;;34.32;81.13;99721.47;1621512;88;21120;-85
2021/07/05 09:03:24;;;;;;;7.15;5.15;;;;;;;34.33;83.14;99720.88;1621436;88;21554;-85
2021/07/05 09:06:14;;;;;;;11.90;5.17;;;;;;;34.00;85.16;99720.95;1619678;88;21035;-84
2021/07/05 09:08:44;;;;;;;14.68;5.37;;;;;;;34.18;85.06;99721.09;1596882;88;21063;-88
2021/07/05 09:11:17;;;;;;;8.10;5.28;;;;;;;33.70;82.39;99715.19;1525029;93;21120;-81
2021/07/05 09:13:53;;;;;;;11.90;4.95;;;;;;;33.87;85.42;99706.16;1517086;93;21142;-84
2021/07/05 09:16:32;;;;;;;10.00;5.20;;;;;;;34.36;80.01;99703.98;1526083;93;21079;-85
2021/07/05 09:18:58;;;;;;;7.67;4.90;;;;;;;34.84;81.29;99698.55;1525802;92;21078;-86
2021/07/05 09:21:31;;;;;;;9.38;5.10;;;;;;;35.03;71.80;99696.74;1525645;94;21123;-84
2021/07/05 09:24:05;;;;;;;7.25;4.80;;;;;;;35.02;76.93;99691.77;1529771;92;21508;-85
2021/07/05 09:26:43;;;;;;;7.30;5.47;;;;;;;35.47;73.56;99696.91;1523856;93;21071;-84
2021/07/05 09:29:22;;;;;;;13.25;5.22;;;;;;;35.69;72.33;99692.16;1521732;94;21624;-85
2021/07/05 09:31:56;;;;;;;10.72;4.83;;;;;;;35.72;71.26;99683.47;1521829;94;21134;-84
2021/07/05 09:34:30;;;;;;;8.15;5.00;;;;;;;35.97;70.48;99694.39;1521934;94;21259;-82
2021/07/05 09:37:20;;;;;;;8.50;5.28;;;;;;;35.76;70.49;99696.73;1521584;94;21571;-82
2021/07/05 09:40:10;;;;;;;10.25;5.45;;;;;;;35.37;69.99;99692.47;1521540;94;21132;-83
2021/07/05 09:42:45;;;;;;;11.10;5.92;;;;;;;34.54;71.20;99689.48;1505837;94;21106;-81
2021/07/05 09:45:25;;;;;;;7.22;4.87;;;;;;;33.58;77.63;99690.14;1478703;96;21169;-82
2021/07/05 09:48:23;;;;;;;11.63;5.45;;;;;;;33.47;83.00;99691.81;1461100;98;21128;-80
2021/07/05 09:51:00;;;;;;;8.80;5.25;;;;;;;33.83;88.36;99690.88;1503754;95;21128;-88
2021/07/05 09:53:40;;;;;;;10.05;5.58;;;;;;;34.24;84.01;99693.55;1506311;95;21129;-86
2021/07/05 09:56:27;;;;;;;9.08;4.67;;;;;;;34.21;84.09;99694.44;1507757;93;21105;-84
2021/07/05 09:58:57;;;;;;;13.05;5.20;;;;;;;33.96;79.19;99702.72;1515620;94;21104;-82
2021/07/05 10:01:42;;;;;;;10.00;5.10;;;;;;;33.90;83.41;99692.07;1515599;94;21367;-83
2021/07/05 10:04:32;;;;;;;8.15;4.58;;;;;;;33.87;82.84;99704.14;1515687;94;21085;-84
2021/07/05 10:07:05;;;;;;;8.78;4.83;;;;;;;33.45;82.10;99703.25;1500906;93;21179;-84
2021/07/05 10:09:36;;;;;;;15.95;5.20;;;;;;;33.24;84.32;99707.36;1524451;94;21625;-80
2021/07/05 10:12:26;;;;;;;9.33;5.20;;;;;;;32.95;85.65;99701.03;1516120;92;21527;-84
2021/07/05 10:15:06;;;;;;;8.28;5.22;;;;;;;32.74;85.54;99691.16;1585392;89;21262;-81
2021/07/05 10:17:41;;;;;;;9.50;4.80;;;;;;;32.73;89.23;99700.73;1585355;89;21152;-83
2021/07/05 10:20:14;;;;;;;7.22;4.95;;;;;;;32.75;84.43;99701.70;1526818;93;21146;-82
2021/07/05 10:22:42;;;;;;;13.10;5.37;;;;;;;32.44;84.61;99689.38;1481826;96;21104;-85
2021/07/05 10:25:10;;;;;;;6.87;5.20;;;;;;;32.31;86.50;99695.46;1481899;95;21108;-83
2021/07/05 10:27:36;;;;;;;7.20;4.75;;;;;;;32.34;93.03;99691.81;1481915;95;21120;-83
2021/07/05 10:30:12;;;;;;;12.90;5.50;;;;;;;32.52;88.53;99698.42;1481789;96;21128;-82
2021/07/05 10:32:40;;;;;;;17.05;5.20;;;;;;;32.71;85.75;99681.45;1482162;96;21146;-83
2021/07/05 10:35:09;;;;;;;11.60;5.25;;;;;;;33.00;91.05;99687.19;1482137;96;21147;-84
2021/07/05 10:37:56;;;;;;;10.10;5.30;;;;;;;33.12;85.22;99684.30;1482227;96;21618;-85
2021/07/05 10:40:41;;;;;;;9.18;5.15;;;;;;;32.98;88.73;99686.23;1482193;95;21486;-81
2021/07/05 10:43:11;;;;;;;9.78;4.70;;;;;;;32.80;88.40;99683.84;1482160;96;21090;-84
2021/07/05 10:45:54;;;;;;;9.95;4.87;;;;;;;32.66;86.89;99681.98;1481985;96;21142;-81
2021/07/05 10:48:42;;;;;;;9.88;5.25;;;;;;;32.54;89.08;99680.66;1482161;96;21006;-90
2021/07/05 10:51:11;;;;;;;16.37;4.90;;;;;;;32.14;92.87;99682.05;1482076;96;21159;-83
2021/07/05 10:53:48;;;;;;;11.97;5.20;;;;;;;32.16;94.32;99680.25;1453658;98;21500;-83
2021/07/05 10:56:36;;;;;;;13.18;5.50;;;;;;;32.45;92.56;99686.05;1453346;98;21109;-84
2021/07/05 10:59:16;;;;;;;10.30;5.00;;;;;;;32.44;92.77;99683.02;1453522;97;21158;-81
2021/07/05 11:01:45;;;;;;;7.50;5.20;;;;;;;32.36;91.70;99692.17;1453740;98;21128;-81
2021/07/05 11:04:29;;;;;;;13.05;5.10;;;;;;;32.15;93.11;99678.66;1459687;98;21097;-82
2021/07/05 11:06:53;;;;;;;16.90;5.50;;;;;;;31.82;92.90;99685.45;1450417;97;21170;-80
2021/07/05 11:09:23;;;;;;;8.75;5.47;;;;;;;31.43;95.92;99682.17;1441692;98;21069;-88
2021/07/05 11:11:58;;;;;;;7.17;4.75;;;;;;;31.39;97.55;99670.92;1428484;100;21247;-86
2021/07/05 11:14:40;;;;;;;6.40;4.37;;;;;;;31.86;98.90;99666.06;1426476;99;21170;-83
2021/07/05 11:17:22;;;;;;;10.75;4.70;;;;;;;32.54;91.57;99660.51;1444929;96;21192;-83
2021/07/05 11:20:02;;;;;;;7.00;4.35;;;;;;;32.90;87.53;99664.48;1441040;99;21096;-84
2021/07/05 11:22:33;;;;;;;6.80;3.85;;;;;;;32.81;82.61;99673.45;1460049;98;21527;-83
2021/07/05 11:25:04;;;;;;;13.28;4.78;;;;;;;32.49;86.14;99679.15;1463784;98;21097;-85
2021/07/05 11:27:59;;;;;;;8.48;4.78;;;;;;;32.41;85.92;99681.88;1460061;98;21130;-85
2021/07/05 11:30:41;;;;;;;12.28;5.83;;;;;;;32.12;87.15;99685.88;1463117;97;21085;-80
2021/07/05 11:33:13;;;;;;;;;;;;;;;31.85;91.30;99679.02;1465222;98;22139;-84